sensor_id;sensor_type;location;lat;lon;timestamp;temperature;humidity
13433;DHT22;6789;47.678;9.158;2023-08-20T00:00:59;23.50;99.90
13433;DHT22;6789;47.678;9.158;2023-08-20T00:06:24;23.40;99.90
13433;DHT22;6789;47.678;9.158;2023-08-20T00:11:33;23.40;99.90
13433;DHT22;6789;47.678;9.158;2023-08-20T00:26:34;23.20;99.90
13433;DHT22;6789;47.678;9.158;2023-08-20T00:31:44;23.10;99.90
13433;DHT22;6789;47.678;9.158;2023-08-20T00:36:52;23.00;99.90
13433;DHT22;6789;47.678;9.158;2023-08-20T00:42:01;22.90;99.90
13433;DHT22;6789;47.678;9.158;2023-08-20T00:47:58;22.80;99.90
13433;DHT22;6789;47.678;9.158;2023-08-20T00:53:19;22.70;99.90
13433;DHT22;6789;47.678;9.158;2023-08-20T01:05:20;22.60;99.90
13433;DHT22;6789;47.678;9.158;2023-08-20T01:22:52;22.30;99.90
13433;DHT22;6789;47.678;9.158;2023-08-20T01:33:40;22.20;99.90
13433;DHT22;6789;47.678;9.158;2023-08-20T01:39:23;22.20;99.90
13433;DHT22;6789;47.678;9.158;2023-08-20T01:45:28;22.10;99.90
13433;DHT22;6789;47.678;9.158;2023-08-20T01:50:39;22.10;99.90
13433;DHT22;6789;47.678;9.158;2023-08-20T01:56:04;22.10;99.90
13433;DHT22;6789;47.678;9.158;2023-08-20T02:01:19;21.90;99.90
13433;DHT22;6789;47.678;9.158;2023-08-20T02:06:35;21.80;99.90
13433;DHT22;6789;47.678;9.158;2023-08-20T02:11:55;21.70;99.90
13433;DHT22;6789;47.678;9.158;2023-08-20T02:17:03;21.60;99.90
13433;DHT22;6789;47.678;9.158;2023-08-20T02:22:13;21.60;99.90
13433;DHT22;6789;47.678;9.158;2023-08-20T02:27:05;21.50;99.90
13433;DHT22;6789;47.678;9.158;2023-08-20T02:31:57;21.50;99.90
13433;DHT22;6789;47.678;9.158;2023-08-20T02:36:49;21.40;99.90
13433;DHT22;6789;47.678;9.158;2023-08-20T02:41:40;21.40;99.90
13433;DHT22;6789;47.678;9.158;2023-08-20T02:47:02;21.40;99.90
13433;DHT22;6789;47.678;9.158;2023-08-20T02:51:54;21.40;99.90
13433;DHT22;6789;47.678;9.158;2023-08-20T02:56:46;21.30;99.90
13433;DHT22;6789;47.678;9.158;2023-08-20T03:01:37;21.30;99.90
13433;DHT22;6789;47.678;9.158;2023-08-20T03:06:29;21.20;99.90
13433;DHT22;6789;47.678;9.158;2023-08-20T03:11:21;21.20;99.90
13433;DHT22;6789;47.678;9.158;2023-08-20T03:16:13;21.20;99.90
13433;DHT22;6789;47.678;9.158;2023-08-20T03:21:04;21.10;99.90
13433;DHT22;6789;47.678;9.158;2023-08-20T03:25:59;21.10;99.90
13433;DHT22;6789;47.678;9.158;2023-08-20T03:30:51;21.10;99.90
13433;DHT22;6789;47.678;9.158;2023-08-20T03:35:43;21.10;99.90
13433;DHT22;6789;47.678;9.158;2023-08-20T03:40:35;21.10;99.90
13433;DHT22;6789;47.678;9.158;2023-08-20T03:45:28;21.00;99.90
13433;DHT22;6789;47.678;9.158;2023-08-20T03:50:21;20.90;99.90
13433;DHT22;6789;47.678;9.158;2023-08-20T03:55:13;20.90;99.90
13433;DHT22;6789;47.678;9.158;2023-08-20T04:00:31;20.90;99.90
13433;DHT22;6789;47.678;9.158;2023-08-20T04:05:23;20.90;99.90
13433;DHT22;6789;47.678;9.158;2023-08-20T04:10:14;20.80;99.90
13433;DHT22;6789;47.678;9.158;2023-08-20T04:15:06;20.80;99.90
13433;DHT22;6789;47.678;9.158;2023-08-20T04:19:58;20.60;99.90
13433;DHT22;6789;47.678;9.158;2023-08-20T04:24:50;20.60;99.90
13433;DHT22;6789;47.678;9.158;2023-08-20T04:29:41;20.60;99.90
13433;DHT22;6789;47.678;9.158;2023-08-20T04:34:33;20.60;99.90
13433;DHT22;6789;47.678;9.158;2023-08-20T04:39:27;20.50;99.90
13433;DHT22;6789;47.678;9.158;2023-08-20T04:44:19;20.50;99.90
13433;DHT22;6789;47.678;9.158;2023-08-20T04:49:11;20.60;99.90
13433;DHT22;6789;47.678;9.158;2023-08-20T04:54:03;20.60;99.90
13433;DHT22;6789;47.678;9.158;2023-08-20T04:58:55;21.00;99.90
13433;DHT22;6789;47.678;9.158;2023-08-20T05:03:47;21.60;99.90
13433;DHT22;6789;47.678;9.158;2023-08-20T05:08:38;22.30;99.90
13433;DHT22;6789;47.678;9.158;2023-08-20T05:13:30;23.10;99.90
13433;DHT22;6789;47.678;9.158;2023-08-20T05:18:22;23.90;99.90
13433;DHT22;6789;47.678;9.158;2023-08-20T05:23:14;24.50;99.90
13433;DHT22;6789;47.678;9.158;2023-08-20T05:28:05;25.10;99.90
13433;DHT22;6789;47.678;9.158;2023-08-20T05:32:57;25.80;99.90
13433;DHT22;6789;47.678;9.158;2023-08-20T05:37:49;26.60;99.90
13433;DHT22;6789;47.678;9.158;2023-08-20T05:42:41;27.40;99.90
13433;DHT22;6789;47.678;9.158;2023-08-20T05:47:33;28.00;99.90
13433;DHT22;6789;47.678;9.158;2023-08-20T05:52:24;28.70;99.90
13433;DHT22;6789;47.678;9.158;2023-08-20T05:57:16;29.30;99.90
13433;DHT22;6789;47.678;9.158;2023-08-20T06:02:08;29.70;99.90
13433;DHT22;6789;47.678;9.158;2023-08-20T06:07:00;30.10;99.90
13433;DHT22;6789;47.678;9.158;2023-08-20T06:11:52;30.60;99.90
13433;DHT22;6789;47.678;9.158;2023-08-20T06:16:43;30.90;99.90
13433;DHT22;6789;47.678;9.158;2023-08-20T06:21:35;31.40;99.90
13433;DHT22;6789;47.678;9.158;2023-08-20T06:26:27;31.40;99.90
13433;DHT22;6789;47.678;9.158;2023-08-20T06:31:19;31.40;99.90
13433;DHT22;6789;47.678;9.158;2023-08-20T06:36:11;31.10;99.90
13433;DHT22;6789;47.678;9.158;2023-08-20T06:41:02;30.80;99.90
13433;DHT22;6789;47.678;9.158;2023-08-20T06:45:54;30.70;99.90
13433;DHT22;6789;47.678;9.158;2023-08-20T06:50:46;30.50;99.90
13433;DHT22;6789;47.678;9.158;2023-08-20T06:55:38;30.10;99.90
13433;DHT22;6789;47.678;9.158;2023-08-20T07:00:30;29.70;99.90
13433;DHT22;6789;47.678;9.158;2023-08-20T07:05:44;29.50;99.90
13433;DHT22;6789;47.678;9.158;2023-08-20T07:10:52;29.50;99.90
13433;DHT22;6789;47.678;9.158;2023-08-20T07:15:44;29.60;99.90
13433;DHT22;6789;47.678;9.158;2023-08-20T07:20:35;29.20;99.90
13433;DHT22;6789;47.678;9.158;2023-08-20T07:25:27;28.90;99.90
13433;DHT22;6789;47.678;9.158;2023-08-20T07:30:19;29.10;99.90
13433;DHT22;6789;47.678;9.158;2023-08-20T07:35:11;29.00;99.90
13433;DHT22;6789;47.678;9.158;2023-08-20T07:40:03;29.10;99.90
13433;DHT22;6789;47.678;9.158;2023-08-20T07:44:55;28.90;99.90
13433;DHT22;6789;47.678;9.158;2023-08-20T07:50:00;29.10;99.90
13433;DHT22;6789;47.678;9.158;2023-08-20T07:54:52;29.00;99.90
13433;DHT22;6789;47.678;9.158;2023-08-20T07:59:44;29.00;99.90
13433;DHT22;6789;47.678;9.158;2023-08-20T08:04:36;29.20;99.90
13433;DHT22;6789;47.678;9.158;2023-08-20T08:09:30;29.20;99.90
13433;DHT22;6789;47.678;9.158;2023-08-20T08:14:23;28.40;99.90
13433;DHT22;6789;47.678;9.158;2023-08-20T08:19:16;28.70;99.90
13433;DHT22;6789;47.678;9.158;2023-08-20T08:24:24;29.00;99.90
13433;DHT22;6789;47.678;9.158;2023-08-20T08:29:15;29.20;99.90
13433;DHT22;6789;47.678;9.158;2023-08-20T08:34:07;29.50;99.90
13433;DHT22;6789;47.678;9.158;2023-08-20T08:38:59;29.40;99.90
13433;DHT22;6789;47.678;9.158;2023-08-20T08:43:51;29.50;99.90
13433;DHT22;6789;47.678;9.158;2023-08-20T08:48:44;29.50;99.90
13433;DHT22;6789;47.678;9.158;2023-08-20T08:53:43;29.60;99.90
13433;DHT22;6789;47.678;9.158;2023-08-20T08:58:35;29.10;99.90
13433;DHT22;6789;47.678;9.158;2023-08-20T09:03:44;28.70;99.90
13433;DHT22;6789;47.678;9.158;2023-08-20T09:09:04;28.60;99.90
13433;DHT22;6789;47.678;9.158;2023-08-20T09:13:57;28.60;99.90
13433;DHT22;6789;47.678;9.158;2023-08-20T09:18:49;29.00;99.90
13433;DHT22;6789;47.678;9.158;2023-08-20T09:23:45;29.50;99.90
13433;DHT22;6789;47.678;9.158;2023-08-20T09:28:42;29.60;99.90
13433;DHT22;6789;47.678;9.158;2023-08-20T09:33:35;29.60;99.90
13433;DHT22;6789;47.678;9.158;2023-08-20T09:38:27;30.00;99.90
13433;DHT22;6789;47.678;9.158;2023-08-20T09:43:19;29.60;99.90
13433;DHT22;6789;47.678;9.158;2023-08-20T09:48:18;29.40;99.90
13433;DHT22;6789;47.678;9.158;2023-08-20T09:59:19;29.70;99.90
13433;DHT22;6789;47.678;9.158;2023-08-20T10:04:10;30.10;99.90
13433;DHT22;6789;47.678;9.158;2023-08-20T10:09:04;30.30;99.90
13433;DHT22;6789;47.678;9.158;2023-08-20T10:14:29;30.50;99.90
13433;DHT22;6789;47.678;9.158;2023-08-20T10:19:38;30.30;99.90
13433;DHT22;6789;47.678;9.158;2023-08-20T10:29:42;31.00;99.90
13433;DHT22;6789;47.678;9.158;2023-08-20T10:34:38;31.10;99.90
13433;DHT22;6789;47.678;9.158;2023-08-20T10:39:59;30.80;99.90
13433;DHT22;6789;47.678;9.158;2023-08-20T10:45:08;30.90;99.90
13433;DHT22;6789;47.678;9.158;2023-08-20T10:50:00;31.20;99.90
13433;DHT22;6789;47.678;9.158;2023-08-20T10:54:55;31.50;99.90
13433;DHT22;6789;47.678;9.158;2023-08-20T11:00:15;31.80;99.90
13433;DHT22;6789;47.678;9.158;2023-08-20T11:05:21;31.40;99.90
13433;DHT22;6789;47.678;9.158;2023-08-20T11:10:38;31.90;99.90
13433;DHT22;6789;47.678;9.158;2023-08-20T11:15:44;32.20;99.90
13433;DHT22;6789;47.678;9.158;2023-08-20T11:20:36;31.70;99.90
13433;DHT22;6789;47.678;9.158;2023-08-20T11:25:30;31.70;99.90
13433;DHT22;6789;47.678;9.158;2023-08-20T11:30:22;31.80;99.90
13433;DHT22;6789;47.678;9.158;2023-08-20T11:35:16;32.00;99.90
13433;DHT22;6789;47.678;9.158;2023-08-20T11:40:08;32.30;99.90
13433;DHT22;6789;47.678;9.158;2023-08-20T11:45:01;32.50;99.90
13433;DHT22;6789;47.678;9.158;2023-08-20T11:50:03;32.10;99.90
13433;DHT22;6789;47.678;9.158;2023-08-20T11:55:10;32.40;99.90
13433;DHT22;6789;47.678;9.158;2023-08-20T12:00:06;32.30;99.90
13433;DHT22;6789;47.678;9.158;2023-08-20T12:05:05;31.60;99.90
13433;DHT22;6789;47.678;9.158;2023-08-20T12:10:21;31.60;99.90
13433;DHT22;6789;47.678;9.158;2023-08-20T12:15:13;31.40;99.90
13433;DHT22;6789;47.678;9.158;2023-08-20T12:20:05;31.60;99.90
13433;DHT22;6789;47.678;9.158;2023-08-20T12:25:06;31.50;99.90
13433;DHT22;6789;47.678;9.158;2023-08-20T12:30:12;31.60;99.90
13433;DHT22;6789;47.678;9.158;2023-08-20T12:35:04;31.60;99.90
13433;DHT22;6789;47.678;9.158;2023-08-20T12:39:56;31.80;99.90
13433;DHT22;6789;47.678;9.158;2023-08-20T12:44:49;31.20;99.90
13433;DHT22;6789;47.678;9.158;2023-08-20T12:49:56;31.00;99.90
13433;DHT22;6789;47.678;9.158;2023-08-20T12:54:50;31.00;99.90
13433;DHT22;6789;47.678;9.158;2023-08-20T13:00:07;31.10;99.90
13433;DHT22;6789;47.678;9.158;2023-08-20T13:05:42;31.00;99.90
13433;DHT22;6789;47.678;9.158;2023-08-20T13:10:34;31.20;99.90
13433;DHT22;6789;47.678;9.158;2023-08-20T13:15:27;31.40;99.90
13433;DHT22;6789;47.678;9.158;2023-08-20T13:20:19;31.40;99.90
13433;DHT22;6789;47.678;9.158;2023-08-20T13:25:16;31.60;99.90
13433;DHT22;6789;47.678;9.158;2023-08-20T13:30:10;31.60;99.90
13433;DHT22;6789;47.678;9.158;2023-08-20T13:35:16;31.80;99.90
13433;DHT22;6789;47.678;9.158;2023-08-20T13:40:08;31.60;99.90
13433;DHT22;6789;47.678;9.158;2023-08-20T13:45:01;31.90;99.90
13433;DHT22;6789;47.678;9.158;2023-08-20T13:49:57;32.10;99.90
13433;DHT22;6789;47.678;9.158;2023-08-20T13:55:04;32.20;99.90
13433;DHT22;6789;47.678;9.158;2023-08-20T13:59:57;32.20;99.90
13433;DHT22;6789;47.678;9.158;2023-08-20T14:04:50;32.30;99.90
13433;DHT22;6789;47.678;9.158;2023-08-20T14:09:42;32.50;99.90
13433;DHT22;6789;47.678;9.158;2023-08-20T14:14:34;32.50;99.90
13433;DHT22;6789;47.678;9.158;2023-08-20T14:20:00;32.40;99.90
13433;DHT22;6789;47.678;9.158;2023-08-20T14:25:06;32.50;99.90
13433;DHT22;6789;47.678;9.158;2023-08-20T14:29:58;32.70;99.90
13433;DHT22;6789;47.678;9.158;2023-08-20T14:34:50;32.90;98.50
13433;DHT22;6789;47.678;9.158;2023-08-20T14:39:42;33.10;98.10
13433;DHT22;6789;47.678;9.158;2023-08-20T14:44:50;33.30;98.10
13433;DHT22;6789;47.678;9.158;2023-08-20T14:49:42;33.40;97.90
13433;DHT22;6789;47.678;9.158;2023-08-20T14:54:50;33.40;96.60
13433;DHT22;6789;47.678;9.158;2023-08-20T14:59:43;33.40;95.50
13433;DHT22;6789;47.678;9.158;2023-08-20T15:04:35;33.10;93.20
13433;DHT22;6789;47.678;9.158;2023-08-20T15:09:27;33.10;93.90
13433;DHT22;6789;47.678;9.158;2023-08-20T15:14:19;33.10;94.90
13433;DHT22;6789;47.678;9.158;2023-08-20T15:19:38;33.10;94.50
13433;DHT22;6789;47.678;9.158;2023-08-20T15:24:31;33.10;94.70
13433;DHT22;6789;47.678;9.158;2023-08-20T15:29:39;33.30;95.00
13433;DHT22;6789;47.678;9.158;2023-08-20T15:34:30;33.40;93.80
13433;DHT22;6789;47.678;9.158;2023-08-20T15:39:38;33.20;94.80
13433;DHT22;6789;47.678;9.158;2023-08-20T15:44:46;33.30;94.40
13433;DHT22;6789;47.678;9.158;2023-08-20T15:50:04;33.20;93.90
13433;DHT22;6789;47.678;9.158;2023-08-20T15:55:10;32.90;94.10
13433;DHT22;6789;47.678;9.158;2023-08-20T16:00:20;32.80;93.90
13433;DHT22;6789;47.678;9.158;2023-08-20T16:05:13;32.90;93.70
13433;DHT22;6789;47.678;9.158;2023-08-20T16:10:05;32.90;93.90
13433;DHT22;6789;47.678;9.158;2023-08-20T16:15:04;32.80;93.10
13433;DHT22;6789;47.678;9.158;2023-08-20T16:20:11;32.80;91.80
13433;DHT22;6789;47.678;9.158;2023-08-20T16:25:03;32.80;91.30
13433;DHT22;6789;47.678;9.158;2023-08-20T16:29:56;32.70;91.90
13433;DHT22;6789;47.678;9.158;2023-08-20T16:34:48;32.60;91.80
13433;DHT22;6789;47.678;9.158;2023-08-20T16:39:40;32.50;93.50
13433;DHT22;6789;47.678;9.158;2023-08-20T16:44:32;32.50;94.30
13433;DHT22;6789;47.678;9.158;2023-08-20T16:49:24;32.50;94.90
13433;DHT22;6789;47.678;9.158;2023-08-20T16:54:15;32.30;94.90
13433;DHT22;6789;47.678;9.158;2023-08-20T16:59:22;32.30;96.00
13433;DHT22;6789;47.678;9.158;2023-08-20T17:04:14;32.30;96.30
13433;DHT22;6789;47.678;9.158;2023-08-20T17:09:06;32.30;97.00
13433;DHT22;6789;47.678;9.158;2023-08-20T17:14:12;32.30;97.70
13433;DHT22;6789;47.678;9.158;2023-08-20T17:19:28;32.20;98.10
13433;DHT22;6789;47.678;9.158;2023-08-20T17:24:20;32.10;99.20
13433;DHT22;6789;47.678;9.158;2023-08-20T17:29:12;32.00;99.60
13433;DHT22;6789;47.678;9.158;2023-08-20T17:34:04;31.90;99.90
13433;DHT22;6789;47.678;9.158;2023-08-20T17:39:00;31.80;99.90
13433;DHT22;6789;47.678;9.158;2023-08-20T17:43:52;31.80;99.90
13433;DHT22;6789;47.678;9.158;2023-08-20T17:48:44;31.70;99.90
13433;DHT22;6789;47.678;9.158;2023-08-20T17:53:49;31.50;99.90
13433;DHT22;6789;47.678;9.158;2023-08-20T17:58:57;31.40;99.90
13433;DHT22;6789;47.678;9.158;2023-08-20T18:03:48;31.30;99.90
13433;DHT22;6789;47.678;9.158;2023-08-20T18:08:41;31.10;99.90
13433;DHT22;6789;47.678;9.158;2023-08-20T18:13:34;30.90;99.90
13433;DHT22;6789;47.678;9.158;2023-08-20T18:18:27;30.80;99.90
13433;DHT22;6789;47.678;9.158;2023-08-20T18:23:20;30.60;99.90
13433;DHT22;6789;47.678;9.158;2023-08-20T18:28:13;30.40;99.90
13433;DHT22;6789;47.678;9.158;2023-08-20T18:33:05;30.10;99.90
13433;DHT22;6789;47.678;9.158;2023-08-20T18:37:57;29.80;99.90
13433;DHT22;6789;47.678;9.158;2023-08-20T18:42:50;29.50;99.90
13433;DHT22;6789;47.678;9.158;2023-08-20T18:47:41;29.30;99.90
13433;DHT22;6789;47.678;9.158;2023-08-20T18:52:33;29.10;99.90
13433;DHT22;6789;47.678;9.158;2023-08-20T18:57:26;28.90;99.90
13433;DHT22;6789;47.678;9.158;2023-08-20T19:02:17;28.60;99.90
13433;DHT22;6789;47.678;9.158;2023-08-20T19:07:09;28.40;99.90
13433;DHT22;6789;47.678;9.158;2023-08-20T19:12:01;28.20;99.90
13433;DHT22;6789;47.678;9.158;2023-08-20T19:16:53;28.00;99.90
13433;DHT22;6789;47.678;9.158;2023-08-20T19:21:44;27.80;99.90
13433;DHT22;6789;47.678;9.158;2023-08-20T19:27:09;27.60;99.90
13433;DHT22;6789;47.678;9.158;2023-08-20T19:32:01;27.30;99.90
13433;DHT22;6789;47.678;9.158;2023-08-20T19:36:53;27.20;99.90
13433;DHT22;6789;47.678;9.158;2023-08-20T19:41:45;27.20;99.90
13433;DHT22;6789;47.678;9.158;2023-08-20T19:46:37;27.00;99.90
13433;DHT22;6789;47.678;9.158;2023-08-20T19:51:29;26.90;99.90
13433;DHT22;6789;47.678;9.158;2023-08-20T19:56:20;26.80;99.90
13433;DHT22;6789;47.678;9.158;2023-08-20T20:01:12;26.60;99.90
13433;DHT22;6789;47.678;9.158;2023-08-20T20:06:04;26.50;99.90
13433;DHT22;6789;47.678;9.158;2023-08-20T20:10:56;26.30;99.90
13433;DHT22;6789;47.678;9.158;2023-08-20T20:15:48;26.30;99.90
13433;DHT22;6789;47.678;9.158;2023-08-20T20:20:40;26.20;99.90
13433;DHT22;6789;47.678;9.158;2023-08-20T20:31:39;26.10;99.90
13433;DHT22;6789;47.678;9.158;2023-08-20T20:36:31;25.90;99.90
13433;DHT22;6789;47.678;9.158;2023-08-20T20:41:23;25.90;99.90
13433;DHT22;6789;47.678;9.158;2023-08-20T20:46:15;25.80;99.90
13433;DHT22;6789;47.678;9.158;2023-08-20T20:51:07;25.80;99.90
13433;DHT22;6789;47.678;9.158;2023-08-20T20:55:59;25.70;99.90
13433;DHT22;6789;47.678;9.158;2023-08-20T21:00:54;25.60;99.90
13433;DHT22;6789;47.678;9.158;2023-08-20T21:05:48;25.60;99.90
13433;DHT22;6789;47.678;9.158;2023-08-20T21:10:40;25.50;99.90
13433;DHT22;6789;47.678;9.158;2023-08-20T21:15:33;25.40;99.90
13433;DHT22;6789;47.678;9.158;2023-08-20T21:20:25;25.30;99.90
13433;DHT22;6789;47.678;9.158;2023-08-20T21:25:30;25.20;99.90
13433;DHT22;6789;47.678;9.158;2023-08-20T21:30:38;25.20;99.90
13433;DHT22;6789;47.678;9.158;2023-08-20T21:35:48;25.10;99.90
13433;DHT22;6789;47.678;9.158;2023-08-20T21:40:40;25.00;99.90
13433;DHT22;6789;47.678;9.158;2023-08-20T21:45:34;24.90;99.90
13433;DHT22;6789;47.678;9.158;2023-08-20T21:50:26;24.80;99.90
13433;DHT22;6789;47.678;9.158;2023-08-20T21:55:32;24.70;99.90
13433;DHT22;6789;47.678;9.158;2023-08-20T22:00:24;24.70;99.90
13433;DHT22;6789;47.678;9.158;2023-08-20T22:05:29;24.60;99.90
13433;DHT22;6789;47.678;9.158;2023-08-20T22:10:35;24.50;99.90
13433;DHT22;6789;47.678;9.158;2023-08-20T22:15:42;24.40;99.90
13433;DHT22;6789;47.678;9.158;2023-08-20T22:20:34;24.40;99.90
13433;DHT22;6789;47.678;9.158;2023-08-20T22:25:26;24.40;99.90
13433;DHT22;6789;47.678;9.158;2023-08-20T22:30:17;24.30;99.90
13433;DHT22;6789;47.678;9.158;2023-08-20T22:35:09;24.20;99.90
13433;DHT22;6789;47.678;9.158;2023-08-20T22:40:01;24.20;99.90
13433;DHT22;6789;47.678;9.158;2023-08-20T22:44:54;24.20;99.90
13433;DHT22;6789;47.678;9.158;2023-08-20T22:49:46;24.10;99.90
13433;DHT22;6789;47.678;9.158;2023-08-20T22:54:38;24.10;99.90
13433;DHT22;6789;47.678;9.158;2023-08-20T22:59:30;24.10;99.90
13433;DHT22;6789;47.678;9.158;2023-08-20T23:04:22;24.00;99.90
13433;DHT22;6789;47.678;9.158;2023-08-20T23:09:14;24.00;99.90
13433;DHT22;6789;47.678;9.158;2023-08-20T23:14:21;24.00;99.90
13433;DHT22;6789;47.678;9.158;2023-08-20T23:19:36;23.90;99.90
13433;DHT22;6789;47.678;9.158;2023-08-20T23:24:42;23.90;99.90
13433;DHT22;6789;47.678;9.158;2023-08-20T23:29:48;23.80;99.90
13433;DHT22;6789;47.678;9.158;2023-08-20T23:34:40;23.70;99.90
13433;DHT22;6789;47.678;9.158;2023-08-20T23:39:31;23.60;99.90
13433;DHT22;6789;47.678;9.158;2023-08-20T23:44:24;23.50;99.90
13433;DHT22;6789;47.678;9.158;2023-08-20T23:49:16;23.50;99.90
13433;DHT22;6789;47.678;9.158;2023-08-20T23:54:08;23.40;99.90
13433;DHT22;6789;47.678;9.158;2023-08-20T23:59:00;23.40;99.90
